Terminal Aerodrome Forecast
Issued by NWS Green Bay, WI

Home | Current Version | Previous Version | Graphics & Text | Print | Product List | Glossary On
Versions: 1 2 3 4 5 6 7 8 9 10 11 12
000
FTUS43 KGRB 152320
TAFGRB
TAF
KGRB 152320Z 1600/1624 29006KT P6SM BKN050
      TEMPO 1600/1601 -SHRA
     FM160400 27004KT P6SM SCT050 BKN100
     FM160800 25004KT P6SM SCT050
     FM161400 25009KT P6SM SCT200
     FM162300 22006KT P6SM SKC=

USA.gov is the U.S. government's official web portal to all federal, state and local government web resources and services.